Time;durP1;ratioP1;P1;durP2;ratioP2;P2;SDS_P1;SDS_P2;PMS_P1;PMS_P2;Temp;Humidity;BMP_temperature;BMP_pressure;BME280_temperature;BME280_humidity;BME280_pressure;Samples;Min_cycle;Max_cycle;Signal;HPM_P1;HPM_P2
2022/08/04 00:00:57;;;;;;;0.73;0.43;;;;;;;21.96;100.00;95424.09;5071631;28;20467;-61
2022/08/04 00:03:29;;;;;;;0.97;0.97;;;;;;;21.60;100.00;95422.16;5071038;28;20925;-60
2022/08/04 00:06:02;;;;;;;0.40;0.30;;;;;;;22.04;100.00;95415.06;5071534;28;20448;-60
2022/08/04 00:08:38;;;;;;;0.50;0.40;;;;;;;22.56;100.00;95420.50;5071190;28;20452;-60
2022/08/04 00:11:09;;;;;;;0.40;0.23;;;;;;;22.90;100.00;95413.75;5071160;28;20513;-61
2022/08/04 00:13:49;;;;;;;0.50;0.40;;;;;;;22.69;100.00;95393.13;5071190;28;20826;-61
2022/08/04 00:16:30;;;;;;;1.30;0.50;;;;;;;22.58;100.00;95426.34;5070962;28;20951;-61
2022/08/04 00:19:11;;;;;;;0.50;0.40;;;;;;;22.60;100.00;95424.09;5070895;28;20470;-61
2022/08/04 00:21:46;;;;;;;0.80;0.47;;;;;;;22.77;100.00;95431.16;5071112;28;20490;-61
2022/08/04 00:24:16;;;;;;;0.50;0.30;;;;;;;22.66;100.00;95430.84;5071316;28;20487;-61
2022/08/04 00:26:45;;;;;;;0.50;0.33;;;;;;;22.77;100.00;95433.88;5071038;28;20479;-62
2022/08/04 00:29:14;;;;;;;0.40;0.30;;;;;;;22.67;100.00;95427.81;5071064;28;20495;-61
2022/08/04 00:31:43;;;;;;;0.50;0.33;;;;;;;22.81;100.00;95446.34;5071032;28;20479;-60
2022/08/04 00:34:27;;;;;;;0.50;0.33;;;;;;;22.83;100.00;95433.28;5070040;28;20432;-60
2022/08/04 00:36:58;;;;;;;0.40;0.20;;;;;;;22.84;100.00;95434.06;5070916;28;20429;-60
2022/08/04 00:39:27;;;;;;;0.40;0.30;;;;;;;22.89;100.00;95434.59;5071219;28;20511;-60
2022/08/04 00:42:16;;;;;;;0.63;0.60;;;;;;;22.77;100.00;95427.31;5071332;28;20855;-60
2022/08/04 00:45:00;;;;;;;0.60;0.50;;;;;;;22.82;100.00;95428.97;5071248;28;20504;-61
2022/08/04 00:47:44;;;;;;;0.50;0.50;;;;;;;22.13;100.00;95429.25;5071267;28;20457;-60
2022/08/04 00:50:23;;;;;;;0.60;0.60;;;;;;;21.97;100.00;95428.34;5073944;28;20523;-60
2022/08/04 00:53:06;;;;;;;0.50;0.30;;;;;;;22.16;100.00;95414.28;5074704;28;20497;-60
2022/08/04 00:55:54;;;;;;;0.40;0.30;;;;;;;22.30;100.00;95418.19;5074938;28;20459;-61
2022/08/04 00:58:42;;;;;;;0.60;0.60;;;;;;;21.58;100.00;95418.97;5074633;28;20520;-62
2022/08/04 01:01:28;;;;;;;1.10;1.10;;;;;;;21.95;100.00;95419.81;5074738;28;20464;-62
2022/08/04 01:04:03;;;;;;;0.50;0.30;;;;;;;22.39;100.00;95421.53;5074386;28;20429;-59
2022/08/04 01:06:48;;;;;;;0.50;0.33;;;;;;;22.38;100.00;95414.59;5074735;28;20429;-61
2022/08/04 01:09:40;;;;;;;0.40;0.30;;;;;;;22.47;100.00;95411.72;5074204;28;20884;-61
2022/08/04 01:12:28;;;;;;;0.50;0.30;;;;;;;22.60;100.00;95400.56;5074297;28;20576;-60
2022/08/04 01:15:06;;;;;;;0.50;0.50;;;;;;;22.56;100.00;95415.09;5074503;28;20456;-60
2022/08/04 01:17:48;;;;;;;0.50;0.30;;;;;;;21.85;100.00;95414.84;5074012;28;21019;-62
2022/08/04 01:20:24;;;;;;;0.60;0.50;;;;;;;21.58;100.00;95429.00;5074137;28;20448;-60
2022/08/04 01:23:33;;;;;;;0.60;0.40;;;;;;;21.82;100.00;95429.00;5073548;28;20492;-60
2022/08/04 01:26:43;;;;;;;0.70;0.70;;;;;;;21.85;100.00;95425.63;5073913;28;20468;-60
2022/08/04 01:29:30;;;;;;;0.50;0.40;;;;;;;21.82;100.00;95429.78;5057695;28;20452;-60
2022/08/04 01:32:20;;;;;;;0.70;0.60;;;;;;;22.00;100.00;95414.19;5073949;28;20464;-60
2022/08/04 01:35:00;;;;;;;0.40;0.30;;;;;;;22.32;100.00;95405.13;5073531;28;20436;-60
2022/08/04 01:37:44;;;;;;;0.93;0.87;;;;;;;22.04;100.00;95417.78;5072098;28;20463;-59
2022/08/04 01:40:15;;;;;;;0.50;0.50;;;;;;;21.46;100.00;95417.06;5073937;28;20461;-61
2022/08/04 01:42:45;;;;;;;0.63;0.47;;;;;;;21.68;100.00;95417.78;5073789;28;20459;-60
2022/08/04 01:45:15;;;;;;;0.50;0.30;;;;;;;22.06;100.00;95419.00;5073811;28;20933;-61
2022/08/04 01:47:51;;;;;;;0.50;0.50;;;;;;;22.22;100.00;95399.41;5073964;28;20482;-61
2022/08/04 01:50:20;;;;;;;0.50;0.30;;;;;;;22.32;100.00;95412.44;5073728;28;20456;-63
2022/08/04 01:52:52;;;;;;;0.60;0.40;;;;;;;22.40;100.00;95423.13;5073717;28;20559;-61
2022/08/04 01:55:21;;;;;;;0.50;0.33;;;;;;;22.22;100.00;95416.41;5073552;28;20457;-61
2022/08/04 01:57:51;;;;;;;0.53;0.30;;;;;;;22.07;100.00;95422.50;5073283;28;20477;-61
2022/08/04 02:00:26;;;;;;;0.50;0.40;;;;;;;21.70;100.00;95421.72;5073211;28;20513;-61
2022/08/04 02:02:55;;;;;;;0.70;0.43;;;;;;;21.49;100.00;95419.09;5073680;28;20890;-61
2022/08/04 02:05:27;;;;;;;0.50;0.30;;;;;;;21.62;100.00;95416.41;5073665;28;21044;-61
2022/08/04 02:08:21;;;;;;;0.70;0.50;;;;;;;21.80;100.00;95420.47;5073011;28;20829;-62
2022/08/04 02:11:04;;;;;;;0.50;0.40;;;;;;;21.95;100.00;95417.13;5073250;28;20447;-61
2022/08/04 02:13:38;;;;;;;0.90;0.70;;;;;;;22.02;100.00;95422.72;5072694;28;20827;-61
2022/08/04 02:16:16;;;;;;;0.70;0.70;;;;;;;21.94;100.00;95423.63;5072484;28;20455;-62
2022/08/04 02:18:57;;;;;;;0.77;0.27;;;;;;;22.19;100.00;95433.28;5072857;28;20925;-60
2022/08/04 02:21:27;;;;;;;0.53;0.50;;;;;;;22.00;100.00;95425.78;5072932;28;20512;-60
2022/08/04 02:24:17;;;;;;;0.50;0.43;;;;;;;22.19;100.00;95425.19;5073184;28;20417;-60
2022/08/04 02:26:50;;;;;;;0.50;0.40;;;;;;;22.24;100.00;95438.44;5072848;28;20968;-59
2022/08/04 02:29:21;;;;;;;0.50;0.33;;;;;;;22.27;100.00;95432.38;5072779;28;20433;-60
2022/08/04 02:32:01;;;;;;;0.50;0.30;;;;;;;22.24;100.00;95437.69;5073054;28;20426;-60
2022/08/04 02:34:38;;;;;;;2.03;0.40;;;;;;;22.06;100.00;95432.50;5072366;28;20556;-60
2022/08/04 02:37:10;;;;;;;0.67;0.47;;;;;;;20.94;100.00;95426.00;5072675;28;20506;-60
2022/08/04 02:39:43;;;;;;;0.50;0.50;;;;;;;20.95;100.00;95433.00;5072572;28;20962;-61
2022/08/04 02:42:17;;;;;;;0.67;0.40;;;;;;;21.50;100.00;95438.78;5072859;28;20504;-61
2022/08/04 02:44:50;;;;;;;0.40;0.30;;;;;;;21.78;100.00;95434.28;5072875;28;20495;-61
2022/08/04 02:47:21;;;;;;;0.77;0.30;;;;;;;21.88;100.00;95433.09;5072473;28;20521;-61
2022/08/04 02:50:14;;;;;;;0.50;0.33;;;;;;;21.97;100.00;95425.66;5072340;28;20459;-61
2022/08/04 02:52:58;;;;;;;0.40;0.30;;;;;;;21.99;100.00;95424.19;5072582;28;20471;-61
2022/08/04 02:55:29;;;;;;;0.40;0.20;;;;;;;21.93;100.00;95432.88;5072316;28;20512;-61
2022/08/04 02:57:58;;;;;;;0.40;0.30;;;;;;;21.50;100.00;95433.38;5072689;28;20421;-62
2022/08/04 03:00:27;;;;;;;0.50;0.50;;;;;;;21.77;100.00;95431.94;5072285;28;21005;-61
2022/08/04 03:03:12;;;;;;;0.60;0.40;;;;;;;21.86;100.00;95433.41;5072335;28;20428;-62
2022/08/04 03:06:04;;;;;;;0.40;0.30;;;;;;;21.96;100.00;95434.91;5072489;28;20540;-62
2022/08/04 03:08:58;;;;;;;0.40;0.30;;;;;;;21.59;100.00;95435.94;5071792;28;20871;-61
2022/08/04 03:12:01;;;;;;;0.40;0.30;;;;;;;21.07;100.00;95428.47;5028195;28;20434;-61
2022/08/04 03:14:56;;;;;;;0.50;0.30;;;;;;;21.44;100.00;95445.50;5052227;28;20575;-60
2022/08/04 03:18:01;;;;;;;3.53;0.40;;;;;;;21.69;100.00;95435.50;5069258;28;20469;-61
2022/08/04 03:21:21;;;;;;;0.40;0.30;;;;;;;21.84;100.00;95442.94;5071370;28;20454;-62
2022/08/04 03:24:37;;;;;;;0.57;0.53;;;;;;;21.79;100.00;95443.16;5072288;28;20799;-61
2022/08/04 03:27:12;;;;;;;0.70;0.40;;;;;;;21.69;100.00;95440.91;5029860;28;21042;-61
2022/08/04 03:30:04;;;;;;;0.40;0.27;;;;;;;21.35;100.00;95444.81;5069251;28;20523;-61
2022/08/04 03:33:05;;;;;;;0.50;0.30;;;;;;;21.21;100.00;95441.63;5071674;28;20509;-59
2022/08/04 03:36:05;;;;;;;0.50;0.40;;;;;;;21.77;100.00;95448.13;5071121;28;20472;-59
2022/08/04 03:39:03;;;;;;;0.60;0.60;;;;;;;21.67;100.00;95408.88;5068409;28;20537;-60
2022/08/04 03:42:03;;;;;;;0.57;0.53;;;;;;;21.33;100.00;95442.44;5071440;28;20425;-60
2022/08/04 03:45:18;;;;;;;0.50;0.30;;;;;;;21.52;100.00;95447.31;5071465;28;20427;-60
2022/08/04 03:48:24;;;;;;;0.40;0.30;;;;;;;21.75;100.00;95447.66;5062256;28;20433;-60
2022/08/04 03:54:38;;;;;;;0.40;0.30;;;;;;;21.92;100.00;95445.56;5029094;28;20533;-60
2022/08/04 03:57:30;;;;;;;0.40;0.20;;;;;;;21.98;100.00;95449.63;5028957;28;21054;-63
2022/08/04 04:00:08;;;;;;;0.50;0.30;;;;;;;22.05;100.00;95446.34;5063826;28;20520;-63
2022/08/04 04:03:08;;;;;;;0.40;0.30;;;;;;;22.21;100.00;95452.66;5071326;28;20486;-63
2022/08/04 04:06:03;;;;;;;1.07;1.07;;;;;;;22.51;100.00;95445.06;5071626;28;20449;-63
2022/08/04 04:08:47;;;;;;;0.70;0.60;;;;;;;22.36;100.00;95464.66;5070631;28;20860;-63
2022/08/04 04:11:55;;;;;;;1.07;0.80;;;;;;;22.57;100.00;95462.56;5071543;28;20430;-63
2022/08/04 04:15:02;;;;;;;6.63;1.10;;;;;;;22.75;100.00;95462.00;5041883;28;20508;-63
2022/08/04 04:18:10;;;;;;;0.60;0.50;;;;;;;22.50;100.00;95467.78;5071144;28;20555;-64
2022/08/04 04:20:57;;;;;;;0.60;0.50;;;;;;;22.57;100.00;95455.28;5068834;28;20483;-64
2022/08/04 04:23:50;;;;;;;0.60;0.60;;;;;;;22.62;100.00;95462.38;5070561;28;20429;-63
2022/08/04 04:26:37;;;;;;;0.50;0.40;;;;;;;22.20;100.00;95451.06;5072662;28;20445;-64
2022/08/04 04:29:28;;;;;;;1.30;1.20;;;;;;;22.68;100.00;95461.81;5072820;28;20872;-64
2022/08/04 04:32:21;;;;;;;0.63;0.57;;;;;;;22.55;100.00;95446.72;5073281;28;20437;-64
2022/08/04 04:35:11;;;;;;;1.30;1.13;;;;;;;22.63;100.00;95447.75;5074435;28;20556;-65
2022/08/04 04:38:00;;;;;;;0.47;0.37;;;;;;;22.73;100.00;95453.47;5074519;28;21041;-65
2022/08/04 04:40:48;;;;;;;0.50;0.50;;;;;;;22.79;100.00;95451.31;5074781;28;20802;-65
2022/08/04 04:43:46;;;;;;;0.50;0.30;;;;;;;22.83;100.00;95467.59;5074451;28;20529;-65
2022/08/04 04:46:30;;;;;;;0.50;0.30;;;;;;;22.87;100.00;95465.81;5074373;28;20439;-65
2022/08/04 04:49:08;;;;;;;0.40;0.20;;;;;;;22.98;100.00;95467.69;5074945;28;20508;-66
2022/08/04 04:51:44;;;;;;;0.40;0.30;;;;;;;23.05;100.00;95462.47;5074388;28;20437;-66
2022/08/04 04:54:25;;;;;;;0.50;0.30;;;;;;;22.92;100.00;95460.16;5074265;28;20472;-65
2022/08/04 04:57:03;;;;;;;0.40;0.20;;;;;;;23.03;100.00;95463.94;5074290;28;20460;-65
2022/08/04 04:59:35;;;;;;;0.63;0.57;;;;;;;22.69;100.00;95457.97;5074603;28;20496;-65
2022/08/04 05:02:32;;;;;;;0.63;0.40;;;;;;;22.84;100.00;95459.19;5074411;28;20917;-64
2022/08/04 05:05:21;;;;;;;0.50;0.40;;;;;;;23.06;100.00;95455.13;5072387;28;20881;-64
2022/08/04 05:08:22;;;;;;;0.60;0.50;;;;;;;23.18;100.00;95455.06;5073972;28;20502;-64
2022/08/04 05:11:46;;;;;;;0.50;0.30;;;;;;;22.95;100.00;95491.91;5062535;28;20453;-64
2022/08/04 05:14:20;;;;;;;0.70;0.50;;;;;;;23.28;100.00;95462.69;5074043;28;20496;-64
2022/08/04 05:17:15;;;;;;;0.70;0.70;;;;;;;23.37;100.00;95457.97;5073957;28;20473;-64
2022/08/04 05:19:53;;;;;;;0.60;0.60;;;;;;;23.26;100.00;95454.94;5074116;28;20512;-63
2022/08/04 05:22:28;;;;;;;0.80;0.70;;;;;;;23.43;100.00;95461.19;5074107;28;20490;-62
2022/08/04 05:25:04;;;;;;;0.50;0.40;;;;;;;23.34;100.00;95458.63;5073467;28;21136;-62
2022/08/04 05:27:40;;;;;;;0.50;0.50;;;;;;;23.35;100.00;95452.09;5073173;28;20424;-62
2022/08/04 05:30:10;;;;;;;3.37;0.80;;;;;;;23.36;100.00;95462.56;5073733;28;20982;-62
2022/08/04 05:32:46;;;;;;;1.90;1.80;;;;;;;22.95;100.00;95472.97;5073613;28;20430;-61
2022/08/04 05:35:22;;;;;;;4.67;1.73;;;;;;;22.84;100.00;95469.19;5072671;28;20996;-61
2022/08/04 05:38:17;;;;;;;1.40;1.00;;;;;;;22.62;100.00;95411.03;5073278;28;20818;-62
2022/08/04 05:40:46;;;;;;;0.90;0.70;;;;;;;22.12;100.00;95406.06;5073486;28;20456;-61
2022/08/04 05:43:16;;;;;;;1.20;0.87;;;;;;;22.75;100.00;95472.81;5073448;28;20425;-61
2022/08/04 05:45:47;;;;;;;0.93;0.93;;;;;;;23.25;100.00;95474.22;5073329;28;20461;-61
2022/08/04 05:48:15;;;;;;;0.43;0.40;;;;;;;23.55;100.00;95472.72;5073621;28;20519;-61
2022/08/04 05:50:46;;;;;;;0.70;0.50;;;;;;;23.82;100.00;95460.25;5073141;28;20469;-61
2022/08/04 05:53:17;;;;;;;0.50;0.40;;;;;;;24.21;100.00;95469.34;5073063;28;20499;-61
2022/08/04 05:55:48;;;;;;;0.70;0.67;;;;;;;24.21;100.00;95477.47;5072872;28;20476;-61
2022/08/04 05:58:29;;;;;;;0.47;0.40;;;;;;;24.63;100.00;95467.59;5072926;28;20516;-61
2022/08/04 06:00:59;;;;;;;0.70;0.70;;;;;;;24.44;100.00;95467.53;5072992;28;20433;-61
2022/08/04 06:03:30;;;;;;;0.97;0.90;;;;;;;24.09;100.00;95462.09;5072562;28;20470;-61
2022/08/04 06:06:00;;;;;;;0.77;0.77;;;;;;;24.23;100.00;95464.38;5072737;28;20461;-61
2022/08/04 06:08:30;;;;;;;10.30;1.37;;;;;;;24.22;100.00;95446.53;5072938;28;20500;-61
2022/08/04 06:11:03;;;;;;;0.57;0.50;;;;;;;24.91;100.00;95451.94;5072616;28;20976;-62
2022/08/04 06:13:40;;;;;;;0.50;0.30;;;;;;;25.55;100.00;95447.75;5072790;28;20961;-63
2022/08/04 06:16:21;;;;;;;0.70;0.70;;;;;;;25.21;100.00;95452.94;5072557;28;20487;-63
2022/08/04 06:19:01;;;;;;;1.27;1.17;;;;;;;25.02;100.00;95447.50;5072340;28;20480;-63
2022/08/04 06:21:53;;;;;;;1.83;0.70;;;;;;;25.17;100.00;95457.50;5072442;28;20433;-64
2022/08/04 06:24:26;;;;;;;0.90;0.80;;;;;;;25.14;100.00;95441.16;5072906;28;20527;-64
2022/08/04 06:26:56;;;;;;;1.90;1.80;;;;;;;24.67;100.00;95384.41;5072867;28;20476;-65
2022/08/04 06:29:30;;;;;;;0.87;0.87;;;;;;;25.45;100.00;95440.19;5072930;28;20491;-65
2022/08/04 06:32:12;;;;;;;0.53;0.53;;;;;;;25.22;99.29;95457.19;5072925;28;20504;-64
2022/08/04 06:35:03;;;;;;;0.97;0.97;;;;;;;25.33;97.67;95440.34;5072313;28;20941;-65
2022/08/04 06:37:33;;;;;;;0.63;0.53;;;;;;;25.88;95.40;95439.81;5072855;28;20874;-64
2022/08/04 06:40:13;;;;;;;0.80;0.80;;;;;;;26.40;90.00;95445.28;5072761;28;20417;-63
2022/08/04 06:43:01;;;;;;;1.47;1.10;;;;;;;26.09;90.22;95452.91;5072591;28;20437;-63
2022/08/04 06:45:33;;;;;;;1.20;1.20;;;;;;;26.16;85.83;95437.53;5072449;28;20483;-64
2022/08/04 06:48:02;;;;;;;1.10;1.07;;;;;;;26.70;81.60;95439.06;5071174;28;20436;-64
2022/08/04 06:50:32;;;;;;;31.93;1.33;;;;;;;26.19;86.81;95442.25;5072458;28;20508;-60
2022/08/04 06:53:21;;;;;;;0.67;0.67;;;;;;;27.09;83.50;95440.38;5072298;28;20515;-59
2022/08/04 06:55:51;;;;;;;0.50;0.50;;;;;;;27.01;82.52;95441.44;5072569;28;20519;-60
2022/08/04 06:58:21;;;;;;;0.63;0.40;;;;;;;27.76;80.80;95429.41;5072451;28;20426;-61
2022/08/04 07:00:52;;;;;;;0.67;0.67;;;;;;;28.13;77.47;95435.59;5072354;28;20482;-61
2022/08/04 07:03:21;;;;;;;0.60;0.50;;;;;;;28.00;73.72;95416.03;5071787;28;20524;-61
2022/08/04 07:05:52;;;;;;;1.20;1.10;;;;;;;28.57;75.53;95439.00;5072203;28;20480;-62
2022/08/04 07:08:21;;;;;;;1.30;1.20;;;;;;;28.78;74.82;95436.44;5071672;28;20461;-62
2022/08/04 07:10:53;;;;;;;0.80;0.80;;;;;;;28.49;78.20;95436.63;5071915;28;20433;-62
2022/08/04 07:13:23;;;;;;;0.93;0.87;;;;;;;28.23;73.39;95434.91;5071918;28;20956;-62
2022/08/04 07:15:52;;;;;;;0.70;0.70;;;;;;;28.82;68.69;95448.13;5071771;28;20477;-62
2022/08/04 07:18:21;;;;;;;0.70;0.60;;;;;;;29.42;68.63;95420.31;5071684;28;20996;-62
2022/08/04 07:20:50;;;;;;;0.60;0.60;;;;;;;29.29;63.07;95380.88;5071929;28;20834;-63
2022/08/04 07:23:24;;;;;;;1.10;0.93;;;;;;;30.12;60.76;95423.13;5071498;28;20909;-63
2022/08/04 07:25:56;;;;;;;1.53;0.70;;;;;;;29.40;64.12;95423.41;5071745;28;20494;-63
2022/08/04 07:28:39;;;;;;;0.80;0.70;;;;;;;29.37;65.05;95405.06;5071743;28;20430;-62
2022/08/04 07:31:11;;;;;;;0.60;0.50;;;;;;;29.93;60.98;95420.00;5071880;28;20437;-62
2022/08/04 07:34:01;;;;;;;0.60;0.53;;;;;;;30.02;59.61;95407.50;5071453;28;20455;-62
2022/08/04 07:36:49;;;;;;;0.93;0.93;;;;;;;30.09;63.20;95412.97;5071668;28;20476;-62
2022/08/04 07:39:21;;;;;;;0.60;0.60;;;;;;;30.44;58.95;95411.38;5071955;28;20496;-62
2022/08/04 07:41:59;;;;;;;0.40;0.40;;;;;;;30.56;55.77;95408.25;5071948;28;20440;-62
2022/08/04 07:44:29;;;;;;;1.47;1.00;;;;;;;31.24;54.45;95399.38;5071741;28;20434;-59
2022/08/04 07:46:58;;;;;;;0.50;0.50;;;;;;;31.19;52.96;95401.75;5071599;28;20449;-59
2022/08/04 07:49:27;;;;;;;0.60;0.60;;;;;;;31.51;51.84;95404.34;5071516;28;20437;-59
2022/08/04 07:52:16;;;;;;;1.23;1.13;;;;;;;31.16;55.24;95386.13;5070587;28;20468;-59
2022/08/04 07:54:45;;;;;;;0.50;0.50;;;;;;;30.77;55.85;95405.41;5070823;28;20522;-60
2022/08/04 07:57:17;;;;;;;0.70;0.70;;;;;;;30.41;55.92;95396.53;5070941;28;20461;-60
2022/08/04 08:00:07;;;;;;;0.50;0.50;;;;;;;31.58;52.25;95394.09;5075506;28;20820;-60
2022/08/04 08:02:38;;;;;;;0.67;0.67;;;;;;;32.45;49.23;95391.81;5075521;28;20428;-60
2022/08/04 08:05:09;;;;;;;1.20;1.10;;;;;;;32.29;47.47;95388.06;5075527;28;20518;-60
2022/08/04 08:07:38;;;;;;;1.87;1.07;;;;;;;32.24;50.16;95388.50;5075150;28;20476;-59
2022/08/04 08:10:22;;;;;;;0.80;0.80;;;;;;;32.15;49.37;95389.00;5074999;28;20478;-59
2022/08/04 08:12:52;;;;;;;2.20;0.67;;;;;;;32.51;47.48;95392.16;5075121;28;20520;-59
2022/08/04 08:15:22;;;;;;;0.50;0.50;;;;;;;33.19;42.66;95387.50;5075467;28;20437;-59
2022/08/04 08:17:51;;;;;;;0.70;0.70;;;;;;;33.09;43.88;95383.66;5074923;28;20994;-60
2022/08/04 08:20:31;;;;;;;0.63;0.60;;;;;;;32.87;45.71;95384.31;5075458;28;20469;-60
2022/08/04 08:23:01;;;;;;;0.60;0.60;;;;;;;31.59;50.34;95386.66;5075059;28;20446;-60
2022/08/04 08:25:31;;;;;;;1.70;0.73;;;;;;;31.66;50.99;95381.13;5075384;28;20506;-60
2022/08/04 08:28:04;;;;;;;0.60;0.60;;;;;;;32.25;48.00;95384.59;5075275;28;20507;-60
2022/08/04 08:30:33;;;;;;;0.50;0.40;;;;;;;32.36;45.22;95383.28;5074829;28;20522;-60
2022/08/04 08:33:05;;;;;;;0.60;0.60;;;;;;;32.48;44.76;95377.31;5074545;28;20473;-60
2022/08/04 08:35:52;;;;;;;0.43;0.43;;;;;;;31.57;47.80;95378.09;5074817;28;20764;-60
2022/08/04 08:38:38;;;;;;;0.50;0.50;;;;;;;31.50;47.43;95375.41;5074885;28;20433;-59
2022/08/04 08:41:36;;;;;;;0.60;0.60;;;;;;;32.75;44.18;95373.88;5075189;28;20519;-60
2022/08/04 08:44:47;;;;;;;0.80;0.63;;;;;;;33.67;40.26;95382.50;5074834;28;20428;-60
2022/08/04 08:47:28;;;;;;;0.40;0.40;;;;;;;34.06;40.00;95378.34;5034841;28;20478;-60
2022/08/04 08:50:55;;;;;;;1.03;0.50;;;;;;;33.73;44.16;95369.03;5074677;28;20441;-62
2022/08/04 08:53:38;;;;;;;0.73;0.73;;;;;;;33.84;41.15;95373.19;5074375;28;20496;-57
2022/08/04 08:56:18;;;;;;;0.50;0.50;;;;;;;35.17;39.02;95367.66;5074515;28;20522;-56
2022/08/04 08:59:16;;;;;;;0.40;0.40;;;;;;;36.16;34.83;95360.59;5074443;28;20439;-57
2022/08/04 09:02:07;;;;;;;0.80;0.80;;;;;;;35.51;37.30;95359.78;5074684;28;20421;-56
2022/08/04 09:05:14;;;;;;;0.60;0.50;;;;;;;34.97;37.60;95348.31;5074385;28;21182;-56
2022/08/04 09:07:58;;;;;;;0.50;0.50;;;;;;;35.84;34.38;95355.09;5053771;28;20198;-56
2022/08/04 09:10:34;;;;;;;0.57;0.57;;;;;;;34.89;33.77;95355.97;5072323;28;20531;-56
2022/08/04 09:13:06;;;;;;;0.60;0.60;;;;;;;36.01;31.03;95349.16;5074738;28;20196;-56
2022/08/04 09:15:39;;;;;;;0.67;0.50;;;;;;;36.55;30.75;95345.81;5074622;28;20269;-56
2022/08/04 09:18:18;;;;;;;0.57;0.57;;;;;;;37.25;26.34;95343.78;5073997;28;20264;-56
2022/08/04 09:20:51;;;;;;;0.40;0.30;;;;;;;37.42;26.81;95342.47;5074286;28;20272;-56
2022/08/04 09:23:28;;;;;;;0.63;0.30;;;;;;;37.38;26.26;95336.28;5074540;28;20190;-56
2022/08/04 09:26:06;;;;;;;0.30;0.30;;;;;;;37.01;26.45;95336.25;5073880;28;20284;-56
2022/08/04 09:28:44;;;;;;;0.40;0.30;;;;;;;36.18;27.24;95328.59;5073299;28;20217;-55
2022/08/04 09:31:30;;;;;;;0.50;0.40;;;;;;;36.07;27.08;95330.88;5074352;28;20194;-57
2022/08/04 09:34:35;;;;;;;0.50;0.40;;;;;;;35.54;27.45;95332.16;5073941;28;20559;-57
2022/08/04 09:37:12;;;;;;;0.43;0.43;;;;;;;35.82;26.99;95325.19;5074277;28;20658;-57
2022/08/04 09:39:49;;;;;;;0.57;0.57;;;;;;;35.90;26.05;95325.78;5073802;28;20194;-57
2022/08/04 09:42:29;;;;;;;0.40;0.30;;;;;;;36.06;26.54;95329.31;5073758;28;20225;-57
2022/08/04 09:45:04;;;;;;;0.57;0.40;;;;;;;36.57;25.87;95324.81;5073446;28;20182;-57
2022/08/04 09:47:39;;;;;;;0.30;0.30;;;;;;;37.14;26.94;95318.44;5073554;28;20194;-57
2022/08/04 09:50:33;;;;;;;1.05;0.75;;;;;;;36.37;25.74;95315.88;5073711;28;20190;-57
2022/08/04 09:53:13;;;;;;;0.90;0.75;;;;;;;35.94;25.80;95321.72;5068704;28;20190;-57
2022/08/04 09:55:52;;;;;;;0.45;0.45;;;;;;;37.16;26.51;95318.78;5073608;28;20616;-57
2022/08/04 09:58:39;;;;;;;0.45;0.40;;;;;;;37.26;27.72;95300.31;5073211;28;20549;-57
2022/08/04 10:01:10;;;;;;;0.65;0.47;;;;;;;37.21;25.87;95307.19;5073326;28;20285;-57
2022/08/04 10:03:43;;;;;;;0.50;0.40;;;;;;;37.00;24.55;95255.31;5072848;28;20221;-57
2022/08/04 10:06:36;;;;;;;0.40;0.30;;;;;;;37.17;24.02;95278.88;5072819;28;20273;-56
2022/08/04 10:09:19;;;;;;;0.30;0.30;;;;;;;37.79;25.30;95263.47;5073154;28;20259;-57
2022/08/04 10:12:03;;;;;;;0.45;0.32;;;;;;;36.72;24.22;95281.00;5072954;28;20765;-57
2022/08/04 10:14:40;;;;;;;0.30;0.20;;;;;;;35.84;26.04;95295.19;5073305;28;20221;-67
2022/08/04 10:17:23;;;;;;;0.40;0.30;;;;;;;36.15;24.52;95306.63;5072701;28;20328;-55
2022/08/04 10:20:01;;;;;;;0.40;0.40;;;;;;;35.45;27.20;95301.59;5073378;28;20217;-54
2022/08/04 10:22:38;;;;;;;0.45;0.45;;;;;;;35.51;25.79;95293.59;5072123;28;20251;-54
2022/08/04 10:25:39;;;;;;;0.40;0.30;;;;;;;36.33;25.79;95303.38;5072613;28;20205;-54
2022/08/04 10:28:31;;;;;;;0.40;0.35;;;;;;;35.37;27.53;95299.47;5072777;28;20198;-55
2022/08/04 10:31:03;;;;;;;0.40;0.30;;;;;;;35.09;25.17;95282.34;5072127;28;20183;-55
2022/08/04 10:33:38;;;;;;;0.93;0.40;;;;;;;34.86;26.41;95299.00;5072540;28;20226;-55
2022/08/04 10:36:10;;;;;;;0.70;0.70;;;;;;;34.04;25.76;95243.19;5072543;28;20799;-55
2022/08/04 10:38:50;;;;;;;0.50;0.40;;;;;;;35.58;26.27;95276.91;5072655;28;20276;-55
2022/08/04 10:41:25;;;;;;;0.60;0.30;;;;;;;35.76;25.00;95281.97;5072454;28;20610;-55
2022/08/04 10:44:13;;;;;;;0.40;0.30;;;;;;;33.93;26.37;95168.38;5072516;28;20302;-56
2022/08/04 10:46:48;;;;;;;0.30;0.30;;;;;;;35.99;26.81;95301.88;5072536;28;20190;-54
2022/08/04 10:49:23;;;;;;;0.50;0.40;;;;;;;36.07;27.78;95272.16;5072051;28;20268;-54
2022/08/04 10:51:59;;;;;;;0.57;0.57;;;;;;;35.34;25.53;95284.56;5072153;28;20232;-54
2022/08/04 10:54:42;;;;;;;0.50;0.40;;;;;;;35.11;26.14;95283.91;5072322;28;20642;-54
2022/08/04 10:57:15;;;;;;;0.60;0.60;;;;;;;35.25;26.41;95280.81;5072011;28;20216;-57
2022/08/04 10:59:53;;;;;;;0.60;0.60;;;;;;;35.19;26.19;95205.41;5071928;28;20640;-54
2022/08/04 11:02:37;;;;;;;0.40;0.30;;;;;;;36.11;26.38;95253.50;5072243;28;20202;-54
2022/08/04 11:05:18;;;;;;;0.68;0.68;;;;;;;35.47;27.19;95254.34;5072212;28;20186;-54
2022/08/04 11:07:51;;;;;;;0.40;0.30;;;;;;;35.44;25.82;95260.69;5072173;28;20217;-54
2022/08/04 11:10:23;;;;;;;0.40;0.40;;;;;;;35.17;25.51;95282.97;5070857;28;20186;-55
2022/08/04 11:13:00;;;;;;;0.30;0.30;;;;;;;35.60;27.20;95252.44;5071799;28;20183;-54
2022/08/04 11:15:36;;;;;;;0.40;0.30;;;;;;;35.70;24.48;95135.56;5071938;28;20190;-54
2022/08/04 11:18:09;;;;;;;0.40;0.40;;;;;;;36.57;23.61;95264.06;5071719;28;20283;-54
2022/08/04 11:20:52;;;;;;;0.30;0.30;;;;;;;37.88;24.70;95254.47;5071753;28;20273;-54
2022/08/04 11:23:26;;;;;;;0.35;0.25;;;;;;;38.69;22.29;95249.59;5071679;28;20193;-54
2022/08/04 11:26:03;;;;;;;0.40;0.30;;;;;;;38.40;21.52;95243.56;5071560;28;20226;-54
2022/08/04 11:28:42;;;;;;;0.75;0.60;;;;;;;37.51;21.44;95248.59;5071758;28;20289;-55
2022/08/04 11:31:18;;;;;;;0.43;0.30;;;;;;;37.94;21.69;95225.03;5071877;28;20194;-55
2022/08/04 11:33:56;;;;;;;1.27;1.25;;;;;;;37.23;22.26;95241.16;5070669;28;20222;-55
2022/08/04 11:36:34;;;;;;;0.35;0.35;;;;;;;37.98;23.81;95220.91;5071931;28;20222;-55
2022/08/04 11:39:10;;;;;;;0.82;0.38;;;;;;;36.65;24.64;95242.53;5071835;28;20295;-54
2022/08/04 11:41:47;;;;;;;0.50;0.50;;;;;;;34.53;25.74;95245.00;5071841;28;20273;-54
2022/08/04 11:44:26;;;;;;;0.40;0.40;;;;;;;35.37;25.33;95238.81;5071782;28;20271;-54
2022/08/04 11:46:59;;;;;;;0.50;0.35;;;;;;;35.44;25.36;95214.63;5071559;28;20285;-54
2022/08/04 11:49:34;;;;;;;0.30;0.30;;;;;;;36.56;25.32;95236.91;5071283;28;20210;-55
2022/08/04 11:52:24;;;;;;;0.50;0.40;;;;;;;35.89;24.09;95233.19;5071442;28;20653;-55
2022/08/04 11:54:55;;;;;;;0.30;0.30;;;;;;;34.73;25.33;95231.22;5071721;28;20222;-54
2022/08/04 11:57:26;;;;;;;0.60;0.60;;;;;;;34.26;25.36;95233.34;5071853;28;20221;-55
2022/08/04 12:00:08;;;;;;;0.50;0.40;;;;;;;33.77;27.11;95232.31;5071404;28;20230;-54
2022/08/04 12:02:59;;;;;;;0.70;0.70;;;;;;;33.25;27.51;95231.97;5071738;28;20623;-54
2022/08/04 12:05:32;;;;;;;0.70;0.70;;;;;;;32.72;27.25;95160.59;5071218;28;20674;-54
2022/08/04 12:08:20;;;;;;;1.10;1.03;;;;;;;32.82;27.45;95231.81;5071289;28;20281;-56
2022/08/04 12:11:03;;;;;;;0.40;0.30;;;;;;;32.79;28.08;95213.41;5070343;28;20491;-55
2022/08/04 12:13:42;;;;;;;0.40;0.37;;;;;;;32.74;27.89;95208.38;5070997;28;20446;-56
2022/08/04 12:16:16;;;;;;;0.50;0.50;;;;;;;32.52;28.44;95224.38;5071246;28;20435;-55
2022/08/04 12:18:56;;;;;;;0.40;0.40;;;;;;;32.87;27.64;95242.31;5071151;28;20491;-56
2022/08/04 12:21:31;;;;;;;0.33;0.30;;;;;;;34.36;25.86;95194.59;5071211;28;20842;-55
2022/08/04 12:24:05;;;;;;;0.63;0.37;;;;;;;35.84;23.69;95217.94;5070914;28;20940;-55
2022/08/04 12:26:37;;;;;;;0.50;0.50;;;;;;;36.36;23.16;95220.47;5070927;28;20463;-55
2022/08/04 12:29:09;;;;;;;0.40;0.30;;;;;;;37.42;23.76;95223.59;5071381;28;20452;-55
2022/08/04 12:31:45;;;;;;;0.40;0.30;;;;;;;37.79;22.30;95212.88;5071432;28;20191;-55
2022/08/04 12:34:17;;;;;;;0.40;0.30;;;;;;;37.22;22.45;95187.09;5071086;28;20685;-56